Coal Hill, AR (72832)

4:33 AM CDT on September 05, 2015 (GMT -0500)
RVO CLARKSVILLE 64 W. | | Change Station
CLOSE
Current Station
Personal Weather Station
Location: Clarksville, AR
Elevation: 394 ft
Nearby Weather Stations

Elev 394 ft 35.46 °N, 93.53 °W | Updated 1 second ago

Clear
Clear
72.0 °F
Feels Like 72.0 °F
N
0.0
Wind Variable Wind from WSW
Gusts 0.0 mph

Today
High -- | Low -- °F
--% Chance of Precip.
Yesterday
High -- | Low -- °F
Precip. -- in
6:49 AM 7:36 PM
Waning Gibbous, 50% visible
Pressure 29.98 in
Visibility 10.0 miles
Clouds Clear
Dew Point 68 °F
Humidity 88%
Rainfall 0.00 in
Snow Depth Not available.
UV 0.0 out of 12
Pollen 10.70 out of 12
Air Quality Not available.
Flu Activity Not available.
METAR KRUE 050853Z AUTO 00000KT 10SM CLR 23/21 A3000 RMK AO2 SLP151 T02330206 53002
Pressure 29.98 in
Visibility 10.0 miles
Clouds Clear
Dew Point 68 °F
Humidity 88%
Rainfall 0.00 in
Snow Depth Not available.
UV 0.0 out of 12
Pollen 10.70 out of 12
Air Quality Not available.
Flu Activity Not available.
METAR KRUE 050853Z AUTO 00000KT 10SM CLR 23/21 A3000 RMK AO2 SLP151 T02330206 53002

10-Day Weather Forecast

×

Almanac

Astronomy

Sep. 05, 2015 Rise Set
Actual Time
Civil Twilight
Nautical Twilight
Astronomical Twilight
Moon
Length of Visible Light
Length of Day
Tomorrow will be .
, % of the Moon is Illuminated

Today's Extremes

State Highs State Lows

Community

WunderPhotos

Upload Photos

1,852,440 photos uploaded!

WunderBlogs® & News

Nearby

Air Quality

  Air Quality AQ Index Pollutant
Not available.

Snow Depth

Station Depth Elevation

Earthquake Activity

City Distance Mag. Time & Date
Minimum magnitude displayed is 2.5.

Coastal Water Temperatures

Place Temperature

Stations

Nearby Weather Stations

Station Location Temp. Windchill Dew Point Humidity Wind Precip. Elev Updated Type